createdAt,value
2023-01-04T00:00:56.817Z,1002.74
2023-01-04T00:01:51.837Z,1002.74
2023-01-04T00:02:57.134Z,1002.66
2023-01-04T00:03:57.763Z,1002.71
2023-01-04T00:04:53.496Z,1002.65
2023-01-04T00:05:58.566Z,1002.65
2023-01-04T00:07:54.215Z,1002.61
2023-01-04T00:08:51.744Z,1002.62
2023-01-04T00:09:56.768Z,1002.61
2023-01-04T00:10:57.235Z,1002.59
2023-01-04T00:11:51.836Z,1002.62
2023-01-04T00:12:59.433Z,1002.64
2023-01-04T00:13:53.332Z,1002.64
2023-01-04T00:14:52.655Z,1002.62
2023-01-04T00:16:07.254Z,1002.73
2023-01-04T00:16:53.440Z,1002.64
2023-01-04T00:17:52.446Z,1002.68
2023-01-04T00:20:08.134Z,1002.62
2023-01-04T00:21:00.452Z,1002.72
2023-01-04T00:22:01.514Z,1002.65
2023-01-04T00:22:55.679Z,1002.74
2023-01-04T00:23:58.713Z,1002.65
2023-01-04T00:25:04.733Z,1002.70
2023-01-04T00:26:56.913Z,1002.70
2023-01-04T00:27:57.643Z,1002.64
2023-01-04T00:28:57.473Z,1002.64
2023-01-04T00:29:52.634Z,1002.62
2023-01-04T00:30:58.066Z,1002.60
2023-01-04T00:31:58.508Z,1002.60
2023-01-04T00:32:53.409Z,1002.48
2023-01-04T00:33:53.222Z,1002.52
2023-01-04T00:34:51.372Z,1002.55
2023-01-04T00:35:51.478Z,1002.42
2023-01-04T00:36:51.797Z,1002.52
2023-01-04T00:37:52.240Z,1002.48
2023-01-04T00:39:02.031Z,1002.48
2023-01-04T00:41:01.250Z,1002.33
2023-01-04T00:42:00.204Z,1002.35
2023-01-04T00:42:52.412Z,1002.35
2023-01-04T00:44:03.904Z,1002.33
2023-01-04T00:44:51.278Z,1002.40
2023-01-04T00:45:51.499Z,1002.37
2023-01-04T00:46:56.004Z,1002.33
2023-01-04T00:47:51.276Z,1002.43
2023-01-04T00:48:58.193Z,1002.44
2023-01-04T00:49:52.318Z,1002.47
2023-01-04T00:50:53.177Z,1002.39
2023-01-04T00:51:53.165Z,1002.35
2023-01-04T00:52:52.162Z,1002.28
2023-01-04T00:53:56.741Z,1002.21
2023-01-04T00:54:51.436Z,1002.25
2023-01-04T00:55:51.273Z,1002.20
2023-01-04T00:56:51.334Z,1002.15
2023-01-04T00:57:51.950Z,1002.11
2023-01-04T00:58:54.726Z,1002.07
2023-01-04T00:59:51.966Z,1002.12
2023-01-04T01:00:51.963Z,1002.14
2023-01-04T01:01:51.276Z,1002.11
2023-01-04T01:02:52.866Z,1002.12
2023-01-04T01:03:52.511Z,1002.11
2023-01-04T01:04:51.390Z,1002.08
2023-01-04T01:07:52.945Z,1002.13
2023-01-04T01:08:51.073Z,1002.09
2023-01-04T01:09:51.123Z,1002.10
2023-01-04T01:10:51.097Z,1002.11
2023-01-04T01:11:51.967Z,1002.12
2023-01-04T01:12:52.031Z,1002.10
2023-01-04T01:13:52.725Z,1002.11
2023-01-04T01:14:53.703Z,1002.09
2023-01-04T01:15:51.042Z,1002.11
2023-01-04T01:16:59.655Z,1002.07
2023-01-04T01:17:52.167Z,1002.04
2023-01-04T01:18:50.940Z,1002.06
2023-01-04T01:19:54.116Z,1002.12
2023-01-04T01:20:50.986Z,1002.04
2023-01-04T01:22:00.113Z,1002.06
2023-01-04T01:22:54.996Z,1002.01
2023-01-04T01:23:51.453Z,1002.01
2023-01-04T01:24:51.018Z,1002.03
2023-01-04T01:25:55.659Z,1002.06
2023-01-04T01:26:53.464Z,1001.99
2023-01-04T01:27:51.017Z,1002.05
2023-01-04T01:28:58.006Z,1002.01
2023-01-04T01:30:02.521Z,1002.08
2023-01-04T01:30:53.075Z,1001.96
2023-01-04T01:31:57.163Z,1001.97
2023-01-04T01:32:57.939Z,1001.90
2023-01-04T01:33:57.210Z,1001.92
2023-01-04T01:34:54.590Z,1001.93
2023-01-04T01:35:53.761Z,1001.93
2023-01-04T01:36:52.231Z,1001.80
2023-01-04T01:38:02.703Z,1001.87
2023-01-04T01:39:00.275Z,1001.81
2023-01-04T01:39:51.855Z,1001.80
2023-01-04T01:41:00.041Z,1001.78
2023-01-04T01:41:55.586Z,1001.82
2023-01-04T01:42:56.851Z,1001.81
2023-01-04T01:44:05.130Z,1001.79
2023-01-04T01:44:55.596Z,1001.83
2023-01-04T01:45:59.236Z,1001.73
2023-01-04T01:46:58.748Z,1001.70
2023-01-04T01:47:58.063Z,1001.74
2023-01-04T01:48:53.364Z,1001.73
2023-01-04T01:50:01.734Z,1001.71
2023-01-04T01:50:50.646Z,1001.71
2023-01-04T01:52:03.162Z,1001.69
2023-01-04T01:57:39.670Z,1001.73
2023-01-04T01:58:20.292Z,1001.66
2023-01-04T02:33:05.618Z,1001.35
2023-01-04T03:13:51.919Z,1000.34
2023-01-04T03:14:31.769Z,1000.33
2023-01-04T03:15:23.126Z,1000.23
2023-01-04T04:08:51.639Z,999.52
2023-01-04T04:09:43.479Z,999.45
2023-01-04T04:11:14.508Z,999.40
2023-01-04T04:12:43.430Z,999.41
2023-01-04T04:13:40.445Z,999.38
2023-01-04T04:14:40.487Z,999.34
2023-01-04T04:15:42.667Z,999.33
2023-01-04T04:16:40.517Z,999.24
2023-01-04T04:17:40.922Z,999.32
2023-01-04T04:18:40.396Z,999.30
2023-01-04T04:19:40.454Z,999.29
2023-01-04T04:20:40.500Z,999.26
2023-01-04T04:21:53.089Z,999.34
2023-01-04T04:22:43.076Z,999.28
2023-01-04T04:23:40.337Z,999.32
2023-01-04T04:24:40.374Z,999.33
2023-01-04T04:25:40.488Z,999.38
2023-01-04T04:26:44.178Z,999.28
2023-01-04T04:27:44.946Z,999.34
2023-01-04T04:28:41.348Z,999.29
2023-01-04T04:29:40.297Z,999.36
2023-01-04T04:30:40.219Z,999.41
2023-01-04T04:31:40.328Z,999.35
2023-01-04T04:32:40.251Z,999.33
2023-01-04T04:33:41.117Z,999.36
2023-01-04T04:34:48.900Z,999.22
2023-01-04T04:35:41.878Z,999.15
2023-01-04T04:36:46.680Z,999.07
2023-01-04T04:37:43.691Z,999.08
2023-01-04T04:38:45.371Z,999.09
2023-01-04T04:39:45.719Z,999.06
2023-01-04T04:40:45.965Z,999.08
2023-01-04T04:41:41.356Z,999.08
2023-01-04T04:42:40.111Z,999.08
2023-01-04T04:43:40.486Z,998.99
2023-01-04T04:44:43.220Z,998.98
2023-01-04T04:45:49.685Z,998.91
2023-01-04T04:46:50.999Z,998.88
2023-01-04T04:48:41.965Z,998.83
2023-01-04T04:49:42.979Z,998.84
2023-01-04T04:50:40.086Z,998.86
2023-01-04T04:51:40.120Z,998.78
2023-01-04T04:53:41.121Z,998.80
2023-01-04T04:54:41.475Z,998.75
2023-01-04T04:57:13.685Z,998.70
2023-01-04T04:57:18.046Z,998.71
2023-01-04T04:58:17.070Z,998.70
2023-01-04T04:59:16.433Z,998.66
2023-01-04T05:00:17.277Z,998.71
2023-01-04T05:02:22.230Z,998.59
2023-01-04T05:03:15.372Z,998.66
2023-01-04T05:04:14.358Z,998.58
2023-01-04T05:05:14.206Z,998.72
2023-01-04T05:06:16.862Z,998.54
2023-01-04T05:07:14.220Z,998.53
2023-01-04T05:08:14.161Z,998.62
2023-01-04T05:09:15.906Z,998.69
2023-01-04T05:10:14.352Z,998.59
2023-01-04T05:11:14.885Z,998.63
2023-01-04T05:12:21.058Z,998.61
2023-01-04T05:13:15.600Z,998.52
2023-01-04T05:14:14.069Z,998.56
2023-01-04T05:15:16.492Z,998.54
2023-01-04T05:16:14.918Z,998.62
2023-01-04T05:17:14.199Z,998.53
2023-01-04T05:18:17.613Z,998.60
2023-01-04T05:19:16.451Z,998.51
2023-01-04T05:20:14.885Z,998.52
2023-01-04T05:21:20.306Z,998.60
2023-01-04T05:22:14.158Z,998.52
2023-01-04T05:23:14.011Z,998.50
2023-01-04T05:24:19.715Z,998.46
2023-01-04T05:25:13.998Z,998.53
2023-01-04T05:26:14.084Z,998.55
2023-01-04T05:27:20.665Z,998.46
2023-01-04T05:28:13.918Z,998.43
2023-01-04T05:29:23.113Z,998.52
2023-01-04T05:30:29.984Z,998.37
2023-01-04T05:31:19.705Z,998.41
2023-01-04T05:32:14.415Z,998.48
2023-01-04T05:33:19.906Z,998.41
2023-01-04T05:34:20.182Z,998.49
2023-01-04T05:35:14.935Z,998.43
2023-01-04T05:36:19.034Z,998.46
2023-01-04T05:37:16.676Z,998.46
2023-01-04T05:38:21.103Z,998.49
2023-01-04T05:39:20.727Z,998.38
2023-01-04T05:40:14.802Z,998.51
2023-01-04T05:41:14.465Z,998.43
2023-01-04T05:42:14.534Z,998.47
2023-01-04T05:43:13.797Z,998.41
2023-01-04T05:44:13.871Z,998.35
2023-01-04T05:45:20.706Z,998.54
2023-01-04T05:46:15.144Z,998.37
2023-01-04T05:47:23.297Z,998.40
2023-01-04T05:48:41.053Z,998.50
2023-01-04T05:49:13.811Z,998.44
2023-01-04T05:50:13.831Z,998.42
2023-01-04T05:51:14.679Z,998.36
2023-01-04T05:52:18.768Z,998.37
2023-01-04T05:55:25.436Z,998.27
2023-01-04T05:56:14.717Z,998.28
2023-01-04T05:57:21.056Z,998.25
2023-01-04T05:58:21.038Z,998.32
2023-01-04T05:59:17.539Z,998.23
2023-01-04T06:00:14.958Z,998.20
2023-01-04T06:01:19.298Z,998.16
2023-01-04T06:02:23.803Z,998.12
2023-01-04T06:03:17.401Z,998.20
2023-01-04T06:04:14.743Z,998.08
2023-01-04T06:05:13.598Z,998.16
2023-01-04T06:06:13.679Z,998.11
2023-01-04T06:07:17.760Z,998.10
2023-01-04T06:08:22.363Z,998.16
2023-01-04T06:09:14.500Z,998.12
2023-01-04T06:10:13.590Z,998.15
2023-01-04T06:11:32.444Z,998.06
2023-01-04T06:14:51.490Z,998.04
2023-01-04T06:15:46.961Z,997.86
2023-01-04T06:17:01.560Z,997.98
2023-01-04T06:18:13.606Z,997.92
2023-01-04T06:18:46.885Z,997.84
2023-01-04T06:19:46.882Z,997.86
2023-01-04T06:20:46.868Z,997.74
2023-01-04T06:21:46.865Z,997.68
2023-01-04T06:22:46.850Z,997.71
2023-01-04T06:23:46.841Z,997.68
2023-01-04T06:24:46.856Z,997.57
2023-01-04T06:25:46.841Z,997.59
2023-01-04T06:26:47.292Z,997.66
2023-01-04T06:27:46.795Z,997.58
2023-01-04T06:28:46.819Z,997.52
2023-01-04T06:29:48.833Z,997.66
2023-01-04T06:30:46.840Z,997.57
2023-01-04T06:33:21.780Z,997.45
2023-01-04T06:34:13.594Z,997.51
2023-01-04T06:35:12.709Z,997.53
2023-01-04T06:36:20.228Z,997.53
2023-01-04T06:37:14.270Z,997.56
2023-01-04T06:38:12.671Z,997.50
2023-01-04T06:39:12.668Z,997.55
2023-01-04T06:40:13.732Z,997.61
2023-01-04T06:41:12.649Z,997.60
2023-01-04T06:42:12.635Z,997.53
2023-01-04T06:43:15.142Z,997.61
2023-01-04T06:44:12.661Z,997.67
2023-01-04T06:45:12.619Z,997.71
2023-01-04T06:46:15.703Z,997.64
2023-01-04T06:47:12.583Z,997.58
2023-01-04T06:48:12.567Z,997.60
2023-01-04T06:49:16.185Z,997.55
2023-01-04T06:50:13.355Z,997.62
2023-01-04T06:51:12.541Z,997.70
2023-01-04T06:52:13.282Z,997.49
2023-01-04T06:56:05.665Z,997.50
2023-01-04T06:57:05.638Z,997.43
2023-01-04T06:58:05.592Z,997.56
2023-01-04T06:59:07.240Z,997.57
2023-01-04T07:00:05.578Z,997.54
2023-01-04T07:01:05.574Z,997.57
2023-01-04T07:02:05.675Z,997.50
2023-01-04T07:03:14.989Z,997.47
2023-01-04T07:04:06.658Z,997.58
2023-01-04T07:05:05.642Z,997.58
2023-01-04T07:06:05.500Z,997.51
2023-01-04T07:07:05.484Z,997.54
2023-01-04T07:08:08.175Z,997.64
2023-01-04T07:09:05.484Z,997.45
2023-01-04T07:10:09.704Z,997.48
2023-01-04T07:11:05.448Z,997.51
2023-01-04T07:12:05.439Z,997.40
2023-01-04T07:13:05.447Z,997.45
2023-01-04T07:14:05.408Z,997.43
2023-01-04T07:15:38.561Z,997.51
2023-01-04T07:16:07.072Z,997.47
2023-01-04T07:17:06.261Z,997.55
2023-01-04T07:18:06.666Z,997.42
2023-01-04T07:19:05.383Z,997.47
2023-01-04T07:20:06.297Z,997.32
2023-01-04T07:21:05.407Z,997.33
2023-01-04T07:22:05.403Z,997.49
2023-01-04T07:29:56.928Z,997.41
2023-01-04T07:30:56.376Z,997.33
2023-01-04T07:31:57.190Z,997.51
2023-01-04T07:32:56.568Z,997.45
2023-01-04T07:33:58.957Z,997.43
2023-01-04T07:34:56.410Z,997.43
2023-01-04T07:36:59.578Z,997.47
2023-01-04T07:38:03.997Z,997.34
2023-01-04T07:59:26.320Z,997.52
2023-01-04T08:00:21.186Z,997.46
2023-01-04T08:01:21.217Z,997.42
2023-01-04T08:02:21.265Z,997.31
2023-01-04T08:03:22.169Z,997.29
2023-01-04T08:04:21.763Z,997.29
2023-01-04T08:36:22.562Z,997.08
2023-01-04T08:37:17.679Z,997.10
2023-01-04T08:38:58.040Z,997.07
2023-01-04T08:39:17.719Z,997.08
2023-01-04T08:40:16.647Z,997.10
2023-01-04T08:41:47.090Z,997.07
2023-01-04T08:42:28.560Z,997.09
2023-01-04T08:43:18.388Z,997.19
2023-01-04T08:44:35.067Z,997.09
2023-01-04T08:45:16.643Z,997.06
2023-01-04T08:46:16.627Z,997.01
2023-01-04T08:47:19.952Z,997.02
2023-01-04T08:48:22.595Z,996.99
2023-01-04T08:49:28.816Z,997.11
2023-01-04T09:02:47.608Z,997.02
2023-01-04T09:03:31.780Z,997.06
2023-01-04T09:04:31.830Z,996.95
2023-01-04T09:05:31.747Z,997.01
2023-01-04T09:06:31.742Z,996.95
2023-01-04T09:07:31.754Z,996.91
2023-01-04T09:08:31.871Z,996.90
2023-01-04T09:09:31.745Z,996.96
2023-01-04T09:10:31.750Z,996.93
2023-01-04T09:11:31.752Z,996.97
2023-01-04T09:12:31.714Z,996.94
2023-01-04T09:13:31.782Z,997.00
2023-01-04T09:14:31.729Z,996.94
2023-01-04T09:50:29.153Z,996.46
2023-01-04T09:51:19.751Z,996.49
2023-01-04T09:52:27.018Z,996.36
2023-01-04T10:51:36.087Z,995.84
2023-01-04T10:52:28.733Z,995.81
2023-01-04T10:53:28.829Z,995.77
2023-01-04T10:59:18.136Z,995.73
2023-01-04T10:59:57.297Z,995.71
2023-01-04T11:17:17.212Z,995.56
2023-01-04T11:18:07.185Z,995.66
2023-01-04T11:19:07.318Z,995.50
2023-01-04T11:38:57.501Z,995.19
2023-01-04T11:39:32.903Z,995.17
2023-01-04T11:40:29.519Z,995.15
2023-01-04T11:49:03.998Z,995.21
2023-01-04T11:49:57.038Z,994.91
2023-01-04T11:50:57.012Z,994.95
2023-01-04T11:51:57.102Z,994.99
2023-01-04T11:52:57.073Z,994.89
2023-01-04T11:54:01.120Z,995.06
2023-01-04T11:54:56.989Z,994.98
2023-01-04T11:55:56.989Z,995.05
2023-01-04T11:56:56.982Z,994.93
2023-01-04T11:57:57.013Z,994.94
2023-01-04T11:58:56.976Z,994.93
2023-01-04T11:59:56.921Z,994.89
2023-01-04T12:00:57.024Z,994.83
2023-01-04T12:01:57.166Z,994.82
2023-01-04T12:03:01.680Z,994.74
2023-01-04T12:03:57.873Z,994.74
2023-01-04T12:04:57.019Z,994.75
2023-01-04T12:05:56.861Z,994.70
2023-01-04T12:06:56.951Z,994.67
2023-01-04T12:07:56.842Z,994.71
2023-01-04T12:08:56.827Z,994.59
2023-01-04T12:09:56.819Z,994.59
2023-01-04T12:10:56.806Z,994.64
2023-01-04T12:11:56.843Z,994.47
2023-01-04T12:13:03.946Z,994.68
2023-01-04T12:13:57.806Z,994.60
2023-01-04T12:14:58.790Z,994.57
2023-01-04T12:15:56.793Z,994.52
2023-01-04T12:16:56.809Z,994.61
2023-01-04T12:17:56.792Z,994.47
2023-01-04T12:18:56.883Z,994.38
2023-01-04T12:19:56.778Z,994.37
2023-01-04T12:20:56.737Z,994.32
2023-01-04T12:21:56.815Z,994.43
2023-01-04T12:22:56.855Z,994.32
2023-01-04T12:23:57.921Z,994.29
2023-01-04T12:25:00.623Z,994.13
2023-01-04T12:25:56.657Z,994.09
2023-01-04T12:27:11.035Z,994.25
2023-01-04T12:27:56.632Z,994.31
2023-01-04T12:28:56.832Z,994.28
2023-01-04T12:29:58.845Z,994.18
2023-01-04T12:30:56.614Z,994.24
2023-01-04T12:31:56.640Z,994.18
2023-01-04T12:32:58.783Z,994.25
2023-01-04T12:33:56.600Z,994.31
2023-01-04T12:34:56.553Z,994.20
2023-01-04T12:37:01.500Z,994.22
2023-01-04T12:37:57.585Z,994.27
2023-01-04T12:38:59.594Z,994.16
2023-01-04T12:39:56.488Z,994.19
2023-01-04T12:40:56.504Z,994.22
2023-01-04T12:41:59.047Z,994.14
2023-01-04T12:42:56.465Z,994.18
2023-01-04T12:43:56.590Z,994.13
2023-01-04T12:45:00.716Z,994.07
2023-01-04T12:45:56.468Z,994.07
2023-01-04T12:46:56.410Z,994.00
2023-01-04T12:48:01.177Z,994.04
2023-01-04T12:48:56.551Z,994.07
2023-01-04T12:49:56.428Z,994.15
2023-01-04T12:51:21.836Z,994.10
2023-01-04T12:52:20.935Z,994.10
2023-01-04T12:53:59.336Z,993.92
2023-01-04T12:54:56.340Z,993.90
2023-01-04T12:55:56.412Z,993.99
2023-01-04T12:56:56.348Z,993.90
2023-01-04T12:57:56.315Z,993.88
2023-01-04T12:59:24.865Z,993.74
2023-01-04T12:59:57.302Z,993.87
2023-01-04T13:00:56.384Z,993.85
2023-01-04T13:01:56.419Z,993.70
2023-01-04T13:02:56.497Z,993.71
2023-01-04T13:04:02.555Z,993.58
2023-01-04T13:05:25.609Z,993.55
2023-01-04T13:05:57.900Z,993.49
2023-01-04T13:06:56.256Z,993.57
2023-01-04T13:22:02.577Z,993.44
2023-01-04T13:22:30.932Z,993.40
2023-01-04T13:25:07.027Z,993.39
2023-01-04T13:25:57.046Z,993.36
2023-01-04T13:26:57.008Z,993.49
2023-01-04T13:27:57.013Z,993.40
2023-01-04T13:35:36.584Z,993.30
2023-01-04T13:36:05.644Z,993.30
2023-01-04T13:37:04.086Z,993.29
2023-01-04T13:46:13.769Z,993.48
2023-01-04T13:46:41.700Z,993.55
2023-01-04T13:47:41.577Z,993.44
2023-01-04T13:56:00.055Z,993.27
2023-01-04T13:57:02.939Z,993.47
2023-01-04T13:58:01.997Z,993.49
2023-01-04T14:20:04.289Z,993.27
2023-01-04T14:20:58.498Z,993.23
2023-01-04T14:21:58.692Z,993.31
2023-01-04T14:22:58.405Z,993.38
2023-01-04T14:23:58.386Z,993.39
2023-01-04T14:25:14.020Z,993.32
2023-01-04T14:27:41.022Z,993.28
2023-01-04T14:28:24.090Z,993.36
2023-01-04T14:29:23.923Z,993.23
2023-01-04T14:30:23.861Z,993.13
2023-01-04T15:13:33.432Z,992.97
2023-01-04T15:14:30.145Z,993.10
2023-01-04T15:15:28.570Z,992.99
2023-01-04T15:21:11.545Z,992.95
2023-01-04T15:22:13.322Z,992.87
2023-01-04T15:22:49.619Z,992.85
2023-01-04T16:22:33.125Z,992.32
2023-01-04T16:26:38.759Z,992.33
2023-01-04T16:27:07.404Z,992.35
2023-01-04T16:34:41.288Z,992.09
2023-01-04T16:35:07.441Z,992.13
2023-01-04T16:36:06.656Z,992.14
2023-01-04T16:40:14.701Z,992.20
2023-01-04T16:41:10.293Z,992.20
2023-01-04T17:06:30.089Z,992.20
2023-01-04T17:07:17.453Z,992.24
2023-01-04T17:08:22.018Z,992.20
2023-01-04T17:09:18.250Z,992.14
2023-01-04T17:12:47.583Z,992.10
2023-01-04T17:13:43.231Z,992.22
2023-01-04T17:14:43.548Z,992.21
2023-01-04T17:19:05.120Z,992.18
2023-01-04T17:19:35.155Z,992.13
2023-01-04T17:20:34.498Z,992.26
2023-01-04T17:21:35.537Z,992.12
2023-01-04T17:22:35.009Z,992.16
2023-01-04T17:23:34.441Z,992.13
2023-01-04T17:26:07.553Z,992.08
2023-01-04T17:27:01.735Z,992.04
2023-01-04T17:28:00.208Z,992.00
2023-01-04T17:29:00.017Z,992.03
2023-01-04T17:31:59.530Z,992.20
2023-01-04T17:32:25.495Z,992.06
2023-01-04T17:33:25.453Z,992.21
2023-01-04T17:40:20.760Z,992.09
2023-01-04T17:41:10.002Z,992.17
2023-01-04T17:42:08.595Z,992.22
2023-01-04T17:43:08.473Z,992.20
2023-01-04T17:44:59.884Z,992.28
2023-01-04T17:45:09.396Z,992.10
2023-01-04T17:46:08.321Z,992.21
2023-01-04T17:47:08.379Z,992.11
2023-01-04T17:48:08.281Z,992.08
2023-01-04T17:49:30.540Z,992.05
2023-01-04T17:50:09.251Z,991.97
2023-01-04T17:51:08.268Z,991.90
2023-01-04T17:52:09.127Z,991.91
2023-01-04T17:53:08.278Z,991.92
2023-01-04T17:54:08.394Z,991.93
2023-01-04T17:55:08.219Z,991.80
2023-01-04T17:56:08.193Z,991.81
2023-01-04T17:57:08.285Z,991.69
2023-01-04T17:58:11.711Z,991.83
2023-01-04T17:59:08.284Z,991.69
2023-01-04T18:00:08.831Z,991.65
2023-01-04T18:01:08.497Z,991.62
2023-01-04T18:02:09.236Z,991.66
2023-01-04T18:03:09.820Z,991.75
2023-01-04T18:04:08.191Z,991.61
2023-01-04T18:05:08.199Z,991.61
2023-01-04T18:33:41.940Z,991.44
2023-01-04T18:34:31.572Z,991.36
2023-01-04T18:35:31.801Z,991.41
2023-01-04T18:36:55.221Z,991.40
2023-01-04T18:37:31.506Z,991.33
2023-01-04T18:38:31.515Z,991.23
2023-01-04T18:39:31.492Z,991.20
2023-01-04T18:40:31.491Z,991.19
2023-01-04T18:41:31.483Z,991.13
2023-01-04T18:42:31.462Z,991.13
2023-01-04T18:43:31.452Z,991.24
2023-01-04T18:44:33.553Z,991.21
2023-01-04T18:45:31.522Z,991.25
2023-01-04T18:46:31.488Z,991.19
2023-01-04T18:47:31.428Z,991.22
2023-01-04T18:48:31.398Z,991.07
2023-01-04T18:49:31.686Z,991.07
2023-01-04T18:50:31.512Z,990.98
2023-01-04T18:51:31.380Z,991.14
2023-01-04T18:52:31.534Z,991.15
2023-01-04T18:53:32.332Z,990.99
2023-01-04T18:54:31.649Z,990.99
